createdAt,value
2022-11-20T00:01:21.542Z,100773.09
2022-11-20T00:01:46.135Z,100773.09
2022-11-20T00:03:48.457Z,100936.47
2022-11-20T00:06:17.459Z,100894.41
2022-11-20T00:06:46.095Z,100894.41
2022-11-20T00:08:44.949Z,100868.84
2022-11-20T00:11:20.010Z,100847.44
2022-11-20T00:11:46.068Z,100847.44
2022-11-20T00:13:48.784Z,100926.13
2022-11-20T00:16:17.780Z,100927.88
2022-11-20T00:16:46.077Z,100927.88
2022-11-20T00:18:44.924Z,100653.44
2022-11-20T00:21:14.281Z,100930.41
2022-11-20T00:21:46.078Z,100930.41
2022-11-20T00:23:41.127Z,100902.16
2022-11-20T00:26:10.464Z,100945.03
2022-11-20T00:26:46.079Z,100945.03
2022-11-20T00:28:37.051Z,100697.00
2022-11-20T00:31:05.000Z,100928.69
2022-11-20T00:31:46.085Z,100928.69
2022-11-20T00:33:31.933Z,100926.94
2022-11-20T00:36:07.287Z,100861.88
2022-11-20T00:36:46.084Z,100861.88
2022-11-20T00:38:34.549Z,100929.53
2022-11-20T00:41:06.437Z,100926.94
2022-11-20T00:41:46.065Z,100926.94
2022-11-20T00:43:32.985Z,100890.94
2022-11-20T00:46:00.636Z,100923.41
2022-11-20T00:46:46.091Z,100923.41
2022-11-20T00:48:27.686Z,100913.97
2022-11-20T00:50:54.967Z,100901.25
2022-11-20T00:51:46.102Z,100901.25
2022-11-20T00:53:22.051Z,100508.84
2022-11-20T00:56:00.065Z,100885.72
2022-11-20T00:56:46.073Z,100885.72
2022-11-20T00:58:31.406Z,100919.06
2022-11-20T01:01:18.864Z,100900.25
2022-11-20T01:01:46.118Z,100900.25
2022-11-20T01:03:47.926Z,100684.81
2022-11-20T01:06:29.160Z,100919.91
2022-11-20T01:06:46.074Z,100919.91
2022-11-20T01:08:57.844Z,100811.44
2022-11-20T01:11:27.230Z,100896.88
2022-11-20T01:11:46.099Z,100896.88
2022-11-20T01:13:54.552Z,100945.72
2022-11-20T01:16:23.740Z,100918.13
2022-11-20T01:16:46.106Z,100918.13
2022-11-20T01:18:52.484Z,100910.34
2022-11-20T01:21:31.767Z,100905.16
2022-11-20T01:21:46.114Z,100905.16
2022-11-20T01:23:59.127Z,100801.78
2022-11-20T01:26:28.436Z,100886.44
2022-11-20T01:26:46.097Z,100886.44
2022-11-20T01:28:55.903Z,100914.63
2022-11-20T01:31:25.171Z,100912.03
2022-11-20T01:31:46.095Z,100912.03
2022-11-20T01:33:54.178Z,100689.00
2022-11-20T01:36:22.636Z,100911.28
2022-11-20T01:36:46.099Z,100911.28
2022-11-20T01:38:52.315Z,100833.56
2022-11-20T01:41:37.214Z,100932.78
2022-11-20T01:41:46.110Z,100932.78
2022-11-20T01:44:05.158Z,100911.22
2022-11-20T01:46:35.936Z,100953.63
2022-11-20T01:46:46.111Z,100953.63
2022-11-20T01:49:07.272Z,100812.16
2022-11-20T01:51:40.756Z,100833.44
2022-11-20T01:51:46.107Z,100833.44
2022-11-20T01:54:12.278Z,100885.66
2022-11-20T01:56:42.576Z,100662.50
2022-11-20T01:56:46.100Z,100662.50
2022-11-20T01:59:11.886Z,100815.47
2022-11-20T02:01:40.097Z,100776.19
2022-11-20T02:01:46.164Z,100776.19
2022-11-20T02:04:09.270Z,100884.81
2022-11-20T02:06:49.330Z,100824.94
2022-11-20T02:06:49.460Z,100824.94
2022-11-20T02:09:16.218Z,100787.31
2022-11-20T02:11:42.992Z,100734.31
2022-11-20T02:11:46.085Z,100734.31
2022-11-20T02:14:10.393Z,100868.44
2022-11-20T02:16:40.232Z,100865.91
2022-11-20T02:16:46.117Z,100865.91
2022-11-20T02:19:13.692Z,100748.81
2022-11-20T02:21:50.059Z,100858.19
2022-11-20T02:21:50.206Z,100858.19
2022-11-20T02:24:19.372Z,100715.63
2022-11-20T02:26:56.647Z,100855.56
2022-11-20T02:26:56.780Z,100855.56
2022-11-20T02:29:29.086Z,100785.75
2022-11-20T02:31:46.117Z,100785.75
2022-11-20T02:31:57.622Z,100676.16
2022-11-20T02:34:24.026Z,100862.47
2022-11-20T02:36:46.109Z,100862.47
2022-11-20T02:36:53.186Z,100806.03
2022-11-20T02:39:22.009Z,100812.88
2022-11-20T02:41:46.136Z,100812.88
2022-11-20T02:41:48.891Z,100860.72
2022-11-20T02:44:15.339Z,100717.97
2022-11-20T02:46:41.728Z,100867.59
2022-11-20T02:46:46.096Z,100867.59
2022-11-20T02:49:08.246Z,100800.97
2022-11-20T02:51:34.619Z,100733.41
2022-11-20T02:51:46.100Z,100733.41
2022-11-20T02:54:01.023Z,100873.59
2022-11-20T02:56:27.874Z,100837.78
2022-11-20T02:56:46.118Z,100837.78
2022-11-20T02:58:54.288Z,100814.63
2022-11-20T03:01:20.755Z,100812.25
2022-11-20T03:01:46.146Z,100812.25
2022-11-20T03:03:49.371Z,100867.75
2022-11-20T03:06:17.694Z,100873.03
2022-11-20T03:06:46.134Z,100873.03
2022-11-20T03:08:44.437Z,100719.09
2022-11-20T03:11:10.975Z,100674.78
2022-11-20T03:11:46.122Z,100674.78
2022-11-20T03:13:37.390Z,100870.59
2022-11-20T03:16:18.140Z,100830.50
2022-11-20T03:16:46.244Z,100830.50
2022-11-20T03:18:44.972Z,100645.84
2022-11-20T03:21:13.404Z,100832.28
2022-11-20T03:21:46.113Z,100832.28
2022-11-20T03:23:40.523Z,100866.59
2022-11-20T03:26:19.736Z,100863.22
2022-11-20T03:26:46.115Z,100863.22
2022-11-20T03:28:54.602Z,100796.47
2022-11-20T03:31:24.851Z,100657.13
2022-11-20T03:31:46.106Z,100657.13
2022-11-20T03:33:51.338Z,100766.44
2022-11-20T03:36:19.239Z,100867.47
2022-11-20T03:36:46.103Z,100867.47
2022-11-20T03:38:46.014Z,100781.06
2022-11-20T03:41:15.360Z,100834.88
2022-11-20T03:41:46.109Z,100834.88
2022-11-20T03:43:42.350Z,100815.16
2022-11-20T03:46:08.860Z,100851.94
2022-11-20T03:46:46.119Z,100851.94
2022-11-20T03:48:35.618Z,100838.25
2022-11-20T03:51:09.177Z,100846.09
2022-11-20T03:51:46.121Z,100846.09
2022-11-20T03:53:35.626Z,100714.38
2022-11-20T03:56:02.065Z,100681.97
2022-11-20T03:56:46.117Z,100681.97
2022-11-20T03:58:28.402Z,100762.50
2022-11-20T04:00:54.794Z,100678.63
2022-11-20T04:01:49.400Z,100678.63
2022-11-20T04:03:21.186Z,100805.25
2022-11-20T04:05:47.616Z,100732.72
2022-11-20T04:06:46.147Z,100732.72
2022-11-20T04:08:13.986Z,100775.47
2022-11-20T04:10:40.367Z,100803.50
2022-11-20T04:11:46.132Z,100803.50
2022-11-20T04:13:06.740Z,100832.53
2022-11-20T04:15:38.122Z,100794.06
2022-11-20T04:16:46.140Z,100794.06
2022-11-20T04:18:04.849Z,100688.00
2022-11-20T04:20:31.242Z,100799.94
2022-11-20T04:21:46.137Z,100799.94
2022-11-20T04:22:57.565Z,100841.97
2022-11-20T04:25:24.012Z,100736.63
2022-11-20T04:26:46.098Z,100736.63
2022-11-20T04:27:50.386Z,100839.25
2022-11-20T04:30:16.823Z,100807.56
2022-11-20T04:31:46.109Z,100807.56
2022-11-20T04:32:43.138Z,100780.22
2022-11-20T04:35:09.598Z,100816.19
2022-11-20T04:36:46.115Z,100816.19
2022-11-20T04:37:35.942Z,100837.50
2022-11-20T04:40:02.259Z,100757.25
2022-11-20T04:41:46.140Z,100757.25
2022-11-20T04:42:31.332Z,100714.34
2022-11-20T04:44:58.228Z,100838.31
2022-11-20T04:46:46.106Z,100838.31
2022-11-20T04:47:24.900Z,100597.22
2022-11-20T04:49:51.492Z,100851.09
2022-11-20T04:51:46.115Z,100851.09
2022-11-20T04:52:17.928Z,100845.03
2022-11-20T04:54:44.291Z,100756.94
2022-11-20T04:56:46.163Z,100756.94
2022-11-20T04:57:14.486Z,100810.69
2022-11-20T04:59:41.257Z,100845.81
2022-11-20T05:01:46.136Z,100845.81
2022-11-20T05:02:07.746Z,100712.41
2022-11-20T05:04:34.103Z,100658.50
2022-11-20T05:06:46.112Z,100658.50
2022-11-20T05:07:00.511Z,100861.25
2022-11-20T05:09:26.926Z,100835.41
2022-11-20T05:11:50.340Z,100835.41
2022-11-20T05:11:53.301Z,100834.56
2022-11-20T05:14:19.669Z,100802.97
2022-11-20T05:16:46.287Z,100669.59
2022-11-20T05:16:46.556Z,100669.59
2022-11-20T05:19:12.730Z,100827.88
2022-11-20T05:21:39.118Z,100804.78
2022-11-20T05:21:46.118Z,100804.78
2022-11-20T05:24:06.777Z,100815.06
2022-11-20T05:26:33.538Z,100843.34
2022-11-20T05:26:46.123Z,100843.34
2022-11-20T05:28:59.846Z,100751.13
2022-11-20T05:31:28.074Z,100790.38
2022-11-20T05:31:46.111Z,100790.38
2022-11-20T05:33:56.279Z,100762.22
2022-11-20T05:36:22.730Z,100704.94
2022-11-20T05:36:46.126Z,100704.94
2022-11-20T05:38:51.023Z,100787.78
2022-11-20T05:41:19.912Z,100833.09
2022-11-20T05:41:46.128Z,100833.09
2022-11-20T05:43:47.602Z,100839.16
2022-11-20T05:46:15.747Z,100796.31
2022-11-20T05:46:46.112Z,100796.31
2022-11-20T05:48:43.584Z,100751.91
2022-11-20T05:51:12.044Z,100822.94
2022-11-20T05:51:46.126Z,100822.94
2022-11-20T05:53:39.686Z,100796.56
2022-11-20T05:56:10.998Z,100824.84
2022-11-20T05:56:46.105Z,100824.84
2022-11-20T05:58:38.320Z,100761.56
2022-11-20T06:01:05.868Z,100778.75
2022-11-20T06:01:46.111Z,100778.75
2022-11-20T06:03:32.223Z,100717.22
2022-11-20T06:06:00.306Z,100815.63
2022-11-20T06:06:46.125Z,100815.63
2022-11-20T06:08:26.689Z,100764.41
2022-11-20T06:10:53.091Z,100820.97
2022-11-20T06:11:46.112Z,100820.97
2022-11-20T06:13:19.418Z,100747.47
2022-11-20T06:15:50.706Z,100734.63
2022-11-20T06:16:46.295Z,100734.63
2022-11-20T06:18:17.154Z,100757.03
2022-11-20T06:20:43.649Z,100761.38
2022-11-20T06:21:46.152Z,100761.38
2022-11-20T06:23:10.001Z,100679.22
2022-11-20T06:25:41.112Z,100812.81
2022-11-20T06:26:46.150Z,100812.81
2022-11-20T06:28:08.157Z,100570.06
2022-11-20T06:30:34.569Z,100771.97
2022-11-20T06:31:46.112Z,100771.97
2022-11-20T06:33:00.995Z,100810.59
2022-11-20T06:35:27.361Z,100751.69
2022-11-20T06:36:46.156Z,100751.69
2022-11-20T06:37:53.817Z,100774.91
2022-11-20T06:40:20.348Z,100717.56
2022-11-20T06:41:46.137Z,100717.56
2022-11-20T06:42:46.726Z,100819.47
2022-11-20T06:45:13.239Z,100674.00
2022-11-20T06:46:46.152Z,100674.00
2022-11-20T06:47:39.742Z,100603.81
2022-11-20T06:50:06.611Z,100733.03
2022-11-20T06:51:46.144Z,100733.03
2022-11-20T06:52:35.024Z,100819.41
2022-11-20T06:55:03.979Z,100764.59
2022-11-20T06:56:46.167Z,100764.59
2022-11-20T06:57:30.374Z,100581.56
2022-11-20T06:59:56.697Z,100791.97
2022-11-20T07:01:46.147Z,100791.97
2022-11-20T07:02:23.105Z,100822.78
2022-11-20T07:04:49.481Z,100833.06
2022-11-20T07:06:46.160Z,100833.06
2022-11-20T07:07:15.877Z,100679.03
2022-11-20T07:09:42.309Z,100776.47
2022-11-20T07:11:46.159Z,100776.47
2022-11-20T07:12:09.101Z,100800.56
2022-11-20T07:14:35.438Z,100838.13
2022-11-20T07:16:46.297Z,100838.13
2022-11-20T07:17:01.812Z,100772.28
2022-11-20T07:19:28.180Z,100843.19
2022-11-20T07:21:46.139Z,100843.19
2022-11-20T07:21:54.508Z,100751.50
2022-11-20T07:24:21.009Z,100743.72
2022-11-20T07:26:46.159Z,100743.72
2022-11-20T07:26:49.992Z,100751.31
2022-11-20T07:29:17.426Z,100848.78
2022-11-20T07:31:43.971Z,100740.22
2022-11-20T07:31:46.130Z,100740.22
2022-11-20T07:34:10.399Z,100811.22
2022-11-20T07:36:36.769Z,100739.28
2022-11-20T07:36:46.141Z,100739.28
2022-11-20T07:39:03.190Z,100842.69
2022-11-20T07:41:29.939Z,100770.78
2022-11-20T07:41:46.142Z,100770.78
2022-11-20T07:43:56.285Z,100807.50
2022-11-20T07:46:22.648Z,100731.28
2022-11-20T07:46:46.166Z,100731.28
2022-11-20T07:48:49.049Z,100770.56
2022-11-20T07:51:15.460Z,100757.66
2022-11-20T07:51:47.963Z,100757.66
2022-11-20T07:53:41.816Z,100829.44
2022-11-20T07:56:08.297Z,100733.69
2022-11-20T07:56:46.154Z,100733.69
2022-11-20T07:58:35.481Z,100838.78
2022-11-20T08:01:06.926Z,100765.88
2022-11-20T08:01:46.150Z,100765.88
2022-11-20T08:03:33.486Z,100824.69
2022-11-20T08:06:03.993Z,100808.31
2022-11-20T08:06:46.153Z,100808.31
2022-11-20T08:08:33.635Z,100756.09
2022-11-20T08:11:35.932Z,100824.44
2022-11-20T08:11:46.148Z,100824.44
2022-11-20T08:14:14.488Z,100821.69
2022-11-20T08:16:46.580Z,100707.91
2022-11-20T08:16:47.340Z,100707.91
2022-11-20T08:19:14.924Z,100823.16
2022-11-20T08:21:41.681Z,100744.38
2022-11-20T08:21:46.135Z,100744.38
2022-11-20T08:24:10.377Z,100745.22
2022-11-20T08:26:38.229Z,100768.09
2022-11-20T08:26:46.171Z,100768.09
2022-11-20T08:29:05.362Z,100816.81
2022-11-20T08:31:32.385Z,100763.66
2022-11-20T08:31:46.179Z,100763.66
2022-11-20T08:33:59.107Z,100786.66
2022-11-20T08:36:25.996Z,100828.22
2022-11-20T08:36:46.151Z,100828.22
2022-11-20T08:38:55.128Z,100851.47
2022-11-20T08:41:32.626Z,100841.06
2022-11-20T08:41:46.166Z,100841.06
2022-11-20T08:44:07.726Z,100738.59
2022-11-20T08:46:42.511Z,100847.09
2022-11-20T08:46:46.173Z,100847.09
2022-11-20T08:49:11.746Z,100838.38
2022-11-20T08:51:39.034Z,100823.09
2022-11-20T08:51:46.152Z,100823.09
2022-11-20T08:54:06.280Z,100798.44
2022-11-20T08:56:32.824Z,100845.25
2022-11-20T08:56:46.162Z,100845.25
2022-11-20T08:59:23.039Z,100769.16
2022-11-20T09:01:46.178Z,100769.16
2022-11-20T09:01:48.590Z,100847.63
2022-11-20T09:04:15.310Z,100855.56
2022-11-20T09:06:41.746Z,100780.44
2022-11-20T09:06:46.186Z,100780.44
2022-11-20T09:09:08.286Z,100753.56
2022-11-20T09:11:36.476Z,100761.25
2022-11-20T09:11:46.191Z,100761.25
2022-11-20T09:14:03.680Z,100834.56
2022-11-20T09:16:30.341Z,100647.69
2022-11-20T09:16:46.169Z,100647.69
2022-11-20T09:19:13.507Z,100744.13
2022-11-20T09:21:43.000Z,100862.00
2022-11-20T09:21:46.176Z,100862.00
2022-11-20T09:24:09.447Z,100771.19
2022-11-20T09:26:35.802Z,100839.28
2022-11-20T09:26:46.164Z,100839.28
2022-11-20T09:29:02.170Z,100818.09
2022-11-20T09:31:28.562Z,100720.69
2022-11-20T09:31:46.171Z,100720.69
2022-11-20T09:33:54.971Z,100834.41
2022-11-20T09:36:21.453Z,100842.16
2022-11-20T09:36:46.158Z,100842.16
2022-11-20T09:38:48.319Z,100827.38
2022-11-20T09:41:26.948Z,100845.50
2022-11-20T09:41:46.183Z,100845.50
2022-11-20T09:44:06.099Z,100845.47
2022-11-20T09:46:51.468Z,100845.28
2022-11-20T09:46:51.598Z,100845.28
2022-11-20T09:49:49.421Z,100783.69
2022-11-20T09:51:46.150Z,100783.69
2022-11-20T09:52:21.529Z,100833.97
2022-11-20T09:54:48.236Z,100767.97
2022-11-20T09:56:46.202Z,100767.97
2022-11-20T09:57:19.906Z,100784.88
2022-11-20T09:59:56.729Z,100859.28
2022-11-20T10:01:46.161Z,100859.28
2022-11-20T10:02:36.147Z,100766.28
2022-11-20T10:05:11.529Z,100864.38
2022-11-20T10:06:51.979Z,100864.38
2022-11-20T10:07:45.425Z,100658.66
2022-11-20T10:10:28.915Z,100794.47
2022-11-20T10:11:46.157Z,100794.47
2022-11-20T10:13:28.434Z,100857.53
2022-11-20T10:16:30.374Z,100851.41
2022-11-20T10:16:46.203Z,100851.41
2022-11-20T10:19:22.142Z,100845.34
2022-11-20T10:21:46.359Z,100845.34
2022-11-20T10:22:25.501Z,100838.38
2022-11-20T10:25:17.106Z,100826.13
2022-11-20T10:26:46.186Z,100826.13
2022-11-20T10:27:53.292Z,100747.31
2022-11-20T10:30:22.783Z,100830.06
2022-11-20T10:31:46.179Z,100830.06
2022-11-20T10:33:16.977Z,100720.41
2022-11-20T10:35:48.959Z,100814.34
2022-11-20T10:36:46.185Z,100814.34
2022-11-20T10:38:32.508Z,100789.25
2022-11-20T10:41:22.090Z,100733.28
2022-11-20T10:41:46.199Z,100733.28
2022-11-20T10:43:52.652Z,100691.09
2022-11-20T10:46:23.545Z,100729.19
2022-11-20T10:46:46.178Z,100729.19
2022-11-20T10:48:51.269Z,100797.91
2022-11-20T10:51:27.050Z,100788.88
2022-11-20T10:51:46.181Z,100788.88
2022-11-20T10:54:05.578Z,100792.09
2022-11-20T10:56:46.868Z,100702.19
2022-11-20T10:56:50.489Z,100702.19
2022-11-20T10:59:36.456Z,100777.88
2022-11-20T11:01:46.198Z,100777.88
2022-11-20T11:02:15.102Z,100745.47
2022-11-20T11:04:46.182Z,100733.84
2022-11-20T11:06:46.192Z,100733.84
2022-11-20T11:07:26.874Z,100768.22
2022-11-20T11:09:55.407Z,100760.66
2022-11-20T11:11:46.187Z,100760.66
2022-11-20T11:12:24.938Z,100755.78
2022-11-20T11:14:53.730Z,100717.50
2022-11-20T11:16:46.204Z,100717.50
2022-11-20T11:17:27.817Z,100712.44
2022-11-20T11:20:11.501Z,100713.22
2022-11-20T11:21:49.800Z,100713.22
2022-11-20T11:22:49.943Z,100708.75
2022-11-20T11:25:31.020Z,100690.25
2022-11-20T11:26:46.192Z,100690.25
2022-11-20T11:28:00.346Z,100706.25
2022-11-20T11:30:29.281Z,100651.75
2022-11-20T11:31:46.208Z,100651.75
2022-11-20T11:33:07.592Z,100711.19
2022-11-20T11:35:34.468Z,100706.00
2022-11-20T11:36:46.190Z,100706.00
2022-11-20T11:38:08.220Z,100669.84
2022-11-20T11:40:39.021Z,100639.69
2022-11-20T11:41:46.193Z,100639.69
2022-11-20T11:43:28.266Z,100704.91
2022-11-20T11:45:56.093Z,100679.75
2022-11-20T11:46:46.215Z,100679.75
2022-11-20T11:48:23.081Z,100707.66
2022-11-20T11:50:51.443Z,100701.09
2022-11-20T11:51:46.211Z,100701.09
2022-11-20T11:53:20.779Z,100690.09
2022-11-20T11:56:03.961Z,100660.19
2022-11-20T11:56:46.197Z,100660.19
2022-11-20T11:58:39.389Z,100684.84
2022-11-20T12:01:43.745Z,100687.53
2022-11-20T12:01:46.260Z,100687.53
2022-11-20T12:04:42.524Z,100561.03
2022-11-20T12:06:46.184Z,100561.03
2022-11-20T12:07:46.161Z,100587.53
2022-11-20T12:10:21.518Z,100674.25
2022-11-20T12:11:46.212Z,100674.25
2022-11-20T12:12:53.262Z,100620.53
2022-11-20T12:15:47.141Z,100657.38
2022-11-20T12:16:46.179Z,100657.38
2022-11-20T12:18:18.557Z,100569.56
2022-11-20T12:21:03.443Z,100655.56
2022-11-20T12:21:46.186Z,100655.56
2022-11-20T12:23:45.050Z,100630.88
2022-11-20T12:26:36.891Z,100565.56
2022-11-20T12:26:46.229Z,100565.56
2022-11-20T12:29:19.234Z,100648.22
2022-11-20T12:31:57.924Z,100638.03
2022-11-20T12:31:58.081Z,100638.03
2022-11-20T12:34:56.921Z,100626.19
2022-11-20T12:36:46.179Z,100626.19
2022-11-20T12:37:47.097Z,100629.03
2022-11-20T12:40:36.582Z,100588.09
2022-11-20T12:41:46.177Z,100588.09
2022-11-20T12:43:43.772Z,100625.22
2022-11-20T12:46:37.877Z,100625.19
2022-11-20T12:46:46.206Z,100625.19
2022-11-20T12:49:35.816Z,100601.78
2022-11-20T12:51:46.192Z,100601.78
2022-11-20T12:52:25.618Z,100572.47
2022-11-20T12:55:14.774Z,100615.75
2022-11-20T12:56:46.186Z,100615.75
2022-11-20T12:58:02.763Z,100612.03
2022-11-20T13:00:31.544Z,100523.03
2022-11-20T13:01:46.207Z,100523.03
2022-11-20T13:03:09.829Z,100602.91
2022-11-20T13:05:46.201Z,100595.09
2022-11-20T13:06:46.208Z,100595.09
2022-11-20T13:08:22.504Z,100576.44
2022-11-20T13:10:58.552Z,100539.59
2022-11-20T13:11:46.217Z,100539.59
2022-11-20T13:13:57.484Z,100576.03
2022-11-20T13:17:06.423Z,100509.31
2022-11-20T13:17:06.621Z,100509.31
2022-11-20T13:19:33.907Z,100439.31
2022-11-20T13:21:46.196Z,100439.31
2022-11-20T13:22:00.645Z,100544.75
2022-11-20T13:24:30.944Z,100558.66
2022-11-20T13:26:46.217Z,100558.66
2022-11-20T13:27:13.351Z,100498.56
2022-11-20T13:29:43.615Z,100478.00
2022-11-20T13:31:46.210Z,100478.00
2022-11-20T13:32:17.788Z,100553.34
2022-11-20T13:34:55.366Z,100489.34
2022-11-20T13:36:46.196Z,100489.34
2022-11-20T13:37:38.544Z,100507.78
2022-11-20T13:40:13.762Z,100531.38
2022-11-20T13:41:46.197Z,100531.38
2022-11-20T13:43:18.753Z,100531.38
2022-11-20T13:45:56.220Z,100437.03
2022-11-20T13:46:46.216Z,100437.03
2022-11-20T13:48:25.929Z,100518.25
2022-11-20T13:51:01.799Z,100517.94
2022-11-20T13:51:46.232Z,100517.94
2022-11-20T13:53:43.971Z,100505.97
2022-11-20T13:56:25.712Z,100446.91
2022-11-20T13:56:46.193Z,100446.91
2022-11-20T13:59:12.066Z,100494.38
2022-11-20T14:01:43.035Z,100463.78
2022-11-20T14:01:46.310Z,100463.78
2022-11-20T14:04:10.510Z,100388.25
2022-11-20T14:06:43.672Z,100440.03
2022-11-20T14:06:46.214Z,100440.03
2022-11-20T14:09:31.543Z,100420.38
2022-11-20T14:11:46.225Z,100420.38
2022-11-20T14:11:58.717Z,100475.25
2022-11-20T14:14:29.745Z,100475.66
2022-11-20T14:16:46.232Z,100475.66
2022-11-20T14:17:17.833Z,100373.50
2022-11-20T14:19:46.385Z,100376.78
2022-11-20T14:21:46.219Z,100376.78
2022-11-20T14:22:23.524Z,100454.13
2022-11-20T14:25:06.381Z,100445.31
2022-11-20T14:26:46.213Z,100445.31
2022-11-20T14:27:38.256Z,100436.66
2022-11-20T14:30:05.395Z,100415.47
2022-11-20T14:31:49.902Z,100415.47
2022-11-20T14:32:32.241Z,100425.66
2022-11-20T14:35:09.446Z,100429.16
2022-11-20T14:36:46.209Z,100429.16
2022-11-20T14:37:39.424Z,100342.50
2022-11-20T14:40:26.804Z,100413.94
2022-11-20T14:41:46.215Z,100413.94
2022-11-20T14:42:53.932Z,100408.06
2022-11-20T14:45:22.117Z,100332.19
2022-11-20T14:46:46.206Z,100332.19
2022-11-20T14:47:49.753Z,100401.88
2022-11-20T14:50:25.979Z,100337.19
2022-11-20T14:51:46.255Z,100337.19
2022-11-20T14:52:58.123Z,100366.16
2022-11-20T14:55:33.394Z,100419.03
2022-11-20T14:56:46.216Z,100419.03
2022-11-20T14:58:08.194Z,100413.94
2022-11-20T15:00:36.119Z,100327.16
2022-11-20T15:01:46.221Z,100327.16
2022-11-20T15:03:02.538Z,100407.06
2022-11-20T15:05:49.680Z,100385.78
2022-11-20T15:06:46.249Z,100385.78
2022-11-20T15:08:17.190Z,100177.19
2022-11-20T15:10:49.343Z,100396.03
2022-11-20T15:11:46.247Z,100396.03
2022-11-20T15:13:21.017Z,100392.50
2022-11-20T15:15:49.911Z,100392.59
2022-11-20T15:16:46.223Z,100392.59
2022-11-20T15:18:22.149Z,100373.31
2022-11-20T15:20:48.995Z,100381.31
2022-11-20T15:21:46.225Z,100381.31
2022-11-20T15:23:19.479Z,100362.78
2022-11-20T15:25:47.658Z,100296.41
2022-11-20T15:26:46.244Z,100296.41
2022-11-20T15:28:32.742Z,100383.13
2022-11-20T15:30:59.783Z,100377.84
2022-11-20T15:31:46.253Z,100377.84
2022-11-20T15:33:26.139Z,100371.84
2022-11-20T15:35:52.805Z,100346.50
2022-11-20T15:36:46.227Z,100346.50
2022-11-20T15:38:19.135Z,100354.94
2022-11-20T15:40:45.486Z,100292.03
2022-11-20T15:41:46.258Z,100292.03
2022-11-20T15:43:13.855Z,100271.75
2022-11-20T15:45:55.323Z,100251.38
2022-11-20T15:46:46.230Z,100251.38
2022-11-20T15:48:27.907Z,100342.09
2022-11-20T15:51:12.786Z,100340.38
2022-11-20T15:51:46.265Z,100340.38
2022-11-20T15:53:41.134Z,100290.28
2022-11-20T15:56:12.508Z,100269.75
2022-11-20T15:56:46.245Z,100269.75
2022-11-20T15:58:39.174Z,100254.44
2022-11-20T16:01:05.825Z,100245.78
2022-11-20T16:01:46.367Z,100245.78
2022-11-20T16:03:32.316Z,100198.22
2022-11-20T16:05:58.716Z,100260.78
2022-11-20T16:06:46.240Z,100260.78
2022-11-20T16:08:25.074Z,100175.53
2022-11-20T16:10:51.459Z,100259.50
2022-11-20T16:11:46.253Z,100259.50
2022-11-20T16:13:38.861Z,100163.63
2022-11-20T16:16:10.109Z,100268.06
2022-11-20T16:16:46.229Z,100268.06
2022-11-20T16:18:36.857Z,100231.41
2022-11-20T16:21:03.682Z,100274.75
2022-11-20T16:21:46.255Z,100274.75
2022-11-20T16:23:30.158Z,100229.88
2022-11-20T16:25:56.599Z,100171.03
2022-11-20T16:26:46.376Z,100171.03
2022-11-20T16:28:23.242Z,100214.91
2022-11-20T16:30:49.659Z,100171.81
2022-11-20T16:31:46.218Z,100171.81
2022-11-20T16:33:18.046Z,100263.19
2022-11-20T16:35:44.758Z,100258.81
2022-11-20T16:36:46.246Z,100258.81
2022-11-20T16:38:11.175Z,100247.50
2022-11-20T16:40:37.557Z,99999.78
2022-11-20T16:41:46.242Z,99999.78
2022-11-20T16:43:10.900Z,100134.25
2022-11-20T16:45:44.609Z,100198.34
2022-11-20T16:46:46.326Z,100198.34
2022-11-20T16:48:16.809Z,100185.56
2022-11-20T16:50:51.503Z,100172.25
2022-11-20T16:51:46.250Z,100172.25
2022-11-20T16:53:19.362Z,100148.75
2022-11-20T16:55:46.225Z,100188.47
2022-11-20T16:56:46.257Z,100188.47
2022-11-20T16:58:13.371Z,100170.19
2022-11-20T17:00:40.187Z,100078.66
2022-11-20T17:01:46.306Z,100078.66
2022-11-20T17:03:07.188Z,100162.06
2022-11-20T17:05:34.966Z,100148.16
2022-11-20T17:06:46.249Z,100148.16
2022-11-20T17:08:02.448Z,100137.63
2022-11-20T17:10:28.881Z,100051.75
2022-11-20T17:11:46.276Z,100051.75
2022-11-20T17:12:55.241Z,100018.50
2022-11-20T17:15:21.753Z,100108.84
2022-11-20T17:16:46.322Z,100108.84
2022-11-20T17:17:48.056Z,100103.53
2022-11-20T17:20:14.406Z,100009.13
2022-11-20T17:21:46.258Z,100009.13
2022-11-20T17:22:40.928Z,100014.94
2022-11-20T17:25:07.744Z,100032.41
2022-11-20T17:26:46.248Z,100032.41
2022-11-20T17:27:34.079Z,99977.94
2022-11-20T17:30:00.599Z,99965.78
2022-11-20T17:31:46.233Z,99965.78
2022-11-20T17:32:27.002Z,100058.72
2022-11-20T17:34:53.623Z,99985.75
2022-11-20T17:36:46.320Z,99985.75
2022-11-20T17:37:20.014Z,99952.44
2022-11-20T17:39:46.782Z,99932.75
2022-11-20T17:41:46.241Z,99932.75
2022-11-20T17:42:29.411Z,99935.28
2022-11-20T17:44:58.563Z,100019.13
2022-11-20T17:46:46.388Z,100019.13
2022-11-20T17:47:25.228Z,99918.19
2022-11-20T17:49:51.659Z,100032.22
2022-11-20T17:51:46.242Z,100032.22
2022-11-20T17:52:18.003Z,99970.47
2022-11-20T17:54:44.389Z,99885.41
2022-11-20T17:56:46.268Z,99885.41
2022-11-20T17:57:29.225Z,99992.66
2022-11-20T17:59:55.570Z,99878.25
2022-11-20T18:01:46.383Z,99878.25
2022-11-20T18:02:22.069Z,99937.44
2022-11-20T18:04:48.444Z,99895.59
2022-11-20T18:06:46.267Z,99895.59
2022-11-20T18:07:14.878Z,99982.16
2022-11-20T18:09:41.211Z,99949.63
2022-11-20T18:11:46.242Z,99949.63
2022-11-20T18:12:07.627Z,99914.91
2022-11-20T18:14:35.977Z,99969.00
2022-11-20T18:16:46.276Z,99969.00
2022-11-20T18:17:05.563Z,99927.38
2022-11-20T18:19:44.881Z,99845.31
2022-11-20T18:21:46.265Z,99845.31
2022-11-20T18:22:22.733Z,99865.75
2022-11-20T18:24:49.372Z,99889.22
2022-11-20T18:26:46.283Z,99889.22
2022-11-20T18:27:19.148Z,99990.56
2022-11-20T18:29:48.400Z,99998.28
2022-11-20T18:31:46.285Z,99998.28
2022-11-20T18:32:14.883Z,99936.53
2022-11-20T18:34:41.198Z,99895.72
2022-11-20T18:36:46.283Z,99895.72
2022-11-20T18:37:09.683Z,99908.81
2022-11-20T18:39:36.889Z,99866.09
2022-11-20T18:41:46.284Z,99866.09
2022-11-20T18:42:22.444Z,99971.06
2022-11-20T18:44:51.453Z,99814.81
2022-11-20T18:46:46.268Z,99814.81
2022-11-20T18:47:19.345Z,99975.22
2022-11-20T18:49:52.657Z,99878.75
2022-11-20T18:51:46.268Z,99878.75
2022-11-20T18:52:25.832Z,99908.59
2022-11-20T18:54:53.032Z,99793.78
2022-11-20T18:56:46.293Z,99793.78
2022-11-20T18:57:21.857Z,99947.56
2022-11-20T18:59:48.199Z,99860.81
2022-11-20T19:01:46.290Z,99860.81
2022-11-20T19:02:17.038Z,99893.50
2022-11-20T19:04:43.571Z,99943.31
2022-11-20T19:06:46.289Z,99943.31
2022-11-20T19:07:13.719Z,99856.97
2022-11-20T19:09:45.115Z,99913.13
2022-11-20T19:11:46.291Z,99913.13
2022-11-20T19:12:12.797Z,99850.44